• Join FlightAware (Why Join?)
  • Login
  • US Flag 
05:23PM EDT


 

Airport Tracker/Info


-or-


 

Live Flight TrackerFlight Track Log ✈ JBU33 ✈ 27-Jun-2013 ✈ KBTV - KJFK

Flight Track Log - Related Links

Times and Time Zones

All times are in EDT time to prevent confusion due to time zone crossing. See the JBU33 flight status page for this flight to view local times or setup timezone preferences in your user account.

Time Position Orientation Groundspeed Altitude Reporting Facility
EDT Latitude Longitude Course Direction KTS MPH feet Rate Location/Type
02:41PM 44.4097 -73.3583 191° South 302 348 9,900  Level Boston Center
02:42PM 44.3283 -73.3803 191° South 297 342 12,900 2,760 Climbing Boston Center
02:43PM 44.2406 -73.4050 191° South 308 354 15,500 2,760 Climbing Boston Center
02:44PM 44.1467 -73.4325 192° South 330 380 18,500 3,000 Climbing Boston Center
02:45PM 44.0525 -73.4569 191° South 342 394 21,600 2,340 Climbing Boston Center
02:46PM 43.9525 -73.4725 186° South 360 414 23,200 1,680 Climbing Boston Center
02:47PM 43.8419 -73.4878 186° South 390 449 25,000 1,800 Climbing Boston Center
02:48PM 43.7292 -73.5089 188° South 402 463 26,900 1,500 Climbing Boston Center
02:49PM 43.6250 -73.5214 185° South 415 478 28,000 540 Climbing Boston Center
02:50PM 43.5081 -73.5394 186° South 420 483 28,000  Level Boston Center
02:51PM 43.3869 -73.5572 186° South 427 491 28,000  Level Boston Center
02:52PM 43.2700 -73.5778 187° South 427 491 28,000  Level Boston Center
02:53PM 43.1511 -73.5897 184° South 427 491 28,000  Level Boston Center
02:54PM 43.0319 -73.6161 189° South 427 491 28,000  Level Boston Center
02:55PM 42.9131 -73.6336 186° South 427 491 28,000  Level Boston Center
02:56PM 42.8233 -73.6517 188° South 427 491 28,000  Level Boston Center
02:57PM 42.6875 -73.6717 186° South 422 486 28,000  Level Boston Center
02:58PM 42.5811 -73.6892 187° South 401 461 28,000  Level Boston Center
02:59PM 42.4767 -73.7039 186° South 390 449 28,000  Level Boston Center
03:00PM 42.3744 -73.7217 187° South 379 436 28,000  Level Boston Center
03:01PM 42.2700 -73.7364 186° South 379 436 28,000  Level Boston Center
03:02PM 42.1656 -73.7539 187° South 379 436 28,000  Level Boston Center
03:03PM 42.0633 -73.7683 186° South 379 436 28,000  Level Boston Center
03:04PM 41.9569 -73.7831 186° South 385 443 28,000  Level Boston Center
03:05PM 41.8525 -73.8003 187° South 385 443 28,000  Level Boston Center
03:06PM 41.7419 -73.8117 184° South 385 443 28,000 -180 Level Boston Center
03:07PM 41.6394 -73.8289 187° South 385 443 27,700 -540 Descending Boston Center
03:08PM 41.5839 -73.9333 235° Southwest 330 380 27,000 -360 Descending Boston Center
03:09PM 41.5697 -74.0606 262° West 322 371 27,000  Level Boston Center
03:10PM 41.5992 -74.1917 287° West 327 376 27,000  Level Boston Center
03:12PM 41.6897 -74.2639 329° Northwest 315 362 27,000  Level Boston Center
03:14PM 41.7753 -74.0031 66° East 284 327 27,000 -480 Level New York Center
03:15PM 41.6800 -73.9069 143° Southeast 309 356 25,700 -1,800 Descending New York Center
03:16PM 41.5611 -73.9178 184° South 314 361 23,500 -2,220 Descending New York Center
03:17PM 41.4697 -73.9911 211° Southwest 321 369 21,300 -1,740 Descending New York Center
03:18PM 41.3822 -74.0697 214° Southwest 347 399 20,000 -720 Descending New York Center
03:19PM 41.2967 -74.1456 214° Southwest 369 425 19,900  Descending New York Center
03:20PM 41.2369 -74.1950 212° Southwest 358 412 20,000  Climbing New York Center
03:21PM 41.1497 -74.2594 209° Southwest 344 396 20,000  Level New York Center
03:22PM 41.0731 -74.3133 208° Southwest 326 375 20,000 -180 Level New York Center
03:23PM 40.9847 -74.2756 162° South 299 344 19,700 -660 Descending New York Center
03:23PM 40.9500 -74.2000 121° Southeast 343 395 19,000 -660 Descending New York TRACON
03:24PM 40.8667 -74.1167 143° Southeast 328 377 18,700 -960 Descending New York TRACON
03:25PM 40.7833 -74.1000 171° South 320 368 17,100 -1,440 Descending New York TRACON
03:26PM 40.7000 -74.0667 163° South 313 360 16,000 -1,500 Descending New York TRACON
03:27PM 40.6167 -74.0167 156° South 313 360 14,000 -1,440 Descending New York TRACON
03:28PM 40.5333 -73.9833 163° South 308 354 13,100 -540 Descending New York TRACON
03:29PM 40.4667 -73.9167 143° Southeast 312 359 13,000 -960 Descending New York TRACON
03:30PM 40.4000 -73.8500 143° Southeast 300 345 11,200 -1,560 Descending New York TRACON
03:31PM 40.3500 -73.7833 135° Southeast 286 329 10,100 -1,140 Descending New York TRACON
03:32PM 40.3500 -73.7000 90° East 268 308 9,100 -1,020 Descending New York TRACON
03:33PM 40.3833 -73.6000 66° East 269 310 8,000 -780 Descending New York TRACON
03:34PM 40.4333 -73.5667 27° Northeast 259 298 7,600 -600 Descending New York TRACON
03:36PM 40.5667 -73.4833 25° Northeast 251 289 6,300 -900 Descending New York TRACON
03:37PM 40.6333 -73.4667 11° North 239 275 4,900 -1,140 Descending New York TRACON
03:38PM 40.7000 -73.4833 349° North 238 274 4,100 -480 Descending New York TRACON
03:39PM 40.7500 -73.5000 346° North 237 273 4,100 -60 Level New York TRACON
03:40PM 40.8167 -73.5167 349° North 219 252 4,000 -600 Descending New York TRACON
03:41PM 40.8667 -73.5333 346° North 211 243 3,000 -540 Descending New York TRACON
03:42PM 40.8667 -73.6000 270° West 180 207 3,000  Level New York TRACON